Disclaimer

Please do not use the information listed here in-flight or in-navigation, as they are not provided to us by the airports but are provided by volunteers, so they might be outdated.

Search


Regions


Airport information page

Radio informations:
Tower (TWR) - 119.9 MHz
Approach (APP) - 120.8 MHz

Airport informations:
Latitude: 34° 43' 04.94" N
Longitude: 032° 29' 08.63" E
Elevation: 41 feet - 12 meters
Operating hours: 24 hour operations
Operating agency: Civil government, landing fees and diplomatic clearance may be required
Timezone: UTC+2(+3DT) - Last Sunday in March to last Sunday in October
Fuel: Jet A1, without icing nhibitor.

Runway information:
11/29 - 8858 x 148 feet< - >2700 x 45 meters

Recent METARs:
LCPH 180830Z 13011KT 9999 FEW030 23/13 Q1020
LCPH 180900Z 13010KT 9999 FEW030 23/14 Q1020
LCPH 180930Z 14012KT 9999 FEW030 23/14 Q1019

Airport on the map: